createdAt,value
2023-02-22T00:04:13.288Z,63.65
2023-02-22T00:09:20.736Z,63.45
2023-02-22T00:14:27.566Z,62.79
2023-02-22T00:19:32.386Z,62.42
2023-02-22T00:24:36.244Z,63.61
2023-02-22T00:29:39.606Z,63.44
2023-02-22T00:34:44.758Z,63.32
2023-02-22T00:39:48.417Z,63.83
2023-02-22T00:44:51.781Z,63.86
2023-02-22T00:49:56.644Z,62.95
2023-02-22T00:55:00.231Z,63.77
2023-02-22T01:00:12.063Z,62.62
2023-02-22T01:05:17.203Z,62.68
2023-02-22T01:10:22.441Z,63.16
2023-02-22T01:15:29.081Z,62.77
2023-02-22T01:20:34.171Z,63.59
2023-02-22T01:25:37.622Z,64.01
2023-02-22T01:30:41.170Z,63.75
2023-02-22T01:35:46.461Z,62.39
2023-02-22T01:40:51.487Z,63.42
2023-02-22T01:45:58.530Z,62.76
2023-02-22T01:51:10.827Z,63.60
2023-02-22T01:56:15.140Z,62.48
2023-02-22T02:01:19.954Z,63.37
2023-02-22T02:06:25.071Z,63.52
2023-02-22T02:11:29.076Z,63.54
2023-02-22T02:16:41.792Z,63.69
2023-02-22T02:22:10.230Z,63.54
2023-02-22T02:27:16.122Z,63.57
2023-02-22T02:32:37.581Z,63.26
2023-02-22T02:37:48.703Z,62.91
2023-02-22T02:42:57.059Z,63.92
2023-02-22T02:48:02.832Z,63.39
2023-02-22T02:53:09.663Z,63.08
2023-02-22T02:58:19.243Z,63.88
2023-02-22T03:03:47.833Z,63.85
2023-02-22T03:08:56.994Z,63.30
2023-02-22T03:14:05.531Z,63.94
2023-02-22T03:19:13.279Z,64.03
2023-02-22T03:24:20.800Z,63.55
2023-02-22T03:29:26.426Z,62.90
2023-02-22T03:34:35.285Z,63.22
2023-02-22T03:39:39.187Z,62.82
2023-02-22T03:44:43.164Z,64.01
2023-02-22T03:49:52.012Z,63.25
2023-02-22T03:54:55.475Z,63.66
2023-02-22T03:59:58.932Z,62.61
2023-02-22T04:05:04.220Z,63.04
2023-02-22T04:10:08.793Z,63.00
2023-02-22T04:15:15.628Z,63.62
2023-02-22T04:20:25.726Z,62.23
2023-02-22T04:25:29.304Z,62.22
2023-02-22T04:30:32.851Z,62.26
2023-02-22T04:35:37.854Z,62.65
2023-02-22T04:40:41.401Z,63.02
2023-02-22T04:45:44.868Z,62.43
2023-02-22T04:50:51.378Z,63.19
2023-02-22T04:55:55.044Z,62.61
2023-02-22T05:00:58.755Z,62.47
2023-02-22T05:06:03.600Z,63.84
2023-02-22T05:11:07.285Z,63.99
2023-02-22T05:16:10.801Z,62.27
2023-02-22T05:21:16.027Z,62.09
2023-02-22T05:26:20.039Z,62.44
2023-02-22T05:31:23.453Z,62.95
2023-02-22T05:36:28.763Z,63.08
2023-02-22T05:41:32.165Z,63.22
2023-02-22T05:46:35.665Z,62.53
2023-02-22T05:51:40.587Z,62.06
2023-02-22T05:56:44.079Z,62.81
2023-02-22T06:01:47.612Z,62.62
2023-02-22T06:06:52.555Z,62.31
2023-02-22T06:11:56.035Z,62.97
2023-02-22T06:17:01.097Z,63.55
2023-02-22T06:22:06.021Z,62.54
2023-02-22T06:27:09.600Z,62.77
2023-02-22T06:32:13.098Z,62.22
2023-02-22T06:37:18.170Z,63.55
2023-02-22T06:42:21.784Z,63.46
2023-02-22T06:47:25.335Z,63.43
2023-02-22T06:52:30.216Z,63.52
2023-02-22T06:57:33.713Z,62.88
2023-02-22T07:02:37.467Z,62.47
2023-02-22T07:07:42.459Z,62.64
2023-02-22T07:12:45.875Z,62.45
2023-02-22T07:17:49.563Z,62.53
2023-02-22T07:22:54.516Z,62.33
2023-02-22T07:27:58.053Z,62.46
2023-02-22T07:33:03.511Z,62.35
2023-02-22T07:38:09.380Z,62.85
2023-02-22T07:43:18.109Z,63.10
2023-02-22T07:48:22.852Z,63.26
2023-02-22T07:53:30.489Z,63.74
2023-02-22T07:58:35.547Z,63.08
2023-02-22T08:03:38.960Z,62.81
2023-02-22T08:08:44.013Z,64.09
2023-02-22T08:13:47.483Z,63.80
2023-02-22T08:18:50.840Z,63.38
2023-02-22T08:23:56.199Z,62.86
2023-02-22T08:28:59.563Z,64.21
2023-02-22T08:34:03.083Z,63.40
2023-02-22T08:39:07.856Z,63.72
2023-02-22T08:44:11.368Z,63.78
2023-02-22T08:49:14.719Z,62.73
2023-02-22T08:54:19.507Z,62.95
2023-02-22T08:59:22.843Z,62.82
2023-02-22T09:04:26.344Z,62.69
2023-02-22T09:09:31.118Z,63.83
2023-02-22T09:14:34.482Z,63.82
2023-02-22T09:19:37.848Z,64.07
2023-02-22T09:24:43.759Z,63.18
2023-02-22T09:29:49.599Z,62.99
2023-02-22T09:34:52.958Z,63.92
2023-02-22T09:39:57.803Z,64.19
2023-02-22T09:45:06.411Z,63.43
2023-02-22T09:50:15.910Z,63.61
2023-02-22T09:55:28.962Z,63.89
2023-02-22T10:00:35.172Z,63.07
2023-02-22T10:05:42.119Z,63.43
2023-02-22T10:10:52.783Z,64.20
2023-02-22T10:15:58.616Z,63.40
2023-02-22T10:21:04.674Z,64.25
2023-02-22T10:26:16.959Z,64.69
2023-02-22T10:31:24.383Z,64.92
2023-02-22T10:36:29.024Z,63.71
2023-02-22T10:41:35.224Z,64.59
2023-02-22T10:46:40.060Z,64.13
2023-02-22T10:51:43.574Z,64.57
2023-02-22T10:56:50.555Z,63.86
2023-02-22T11:01:54.792Z,64.84
2023-02-22T11:07:12.096Z,63.85
2023-02-22T11:12:22.335Z,63.82
2023-02-22T11:17:33.779Z,64.24
2023-02-22T11:22:41.346Z,64.13
2023-02-22T11:27:47.318Z,65.03
2023-02-22T11:32:52.519Z,64.30
2023-02-22T11:37:56.185Z,64.24
2023-02-22T11:43:12.491Z,64.71
2023-02-22T11:48:23.418Z,63.90
2023-02-22T11:53:33.591Z,64.64
2023-02-22T11:58:46.879Z,64.69
2023-02-22T12:04:19.301Z,64.49
2023-02-22T12:09:29.270Z,65.06
2023-02-22T12:14:42.193Z,64.50
2023-02-22T12:19:49.305Z,64.38
2023-02-22T12:25:09.016Z,64.79
2023-02-22T12:30:17.684Z,64.17
2023-02-22T12:35:24.646Z,65.11
2023-02-22T12:40:35.710Z,64.01
2023-02-22T12:45:44.800Z,64.22
2023-02-22T12:50:49.368Z,64.49
2023-02-22T12:55:56.601Z,64.24
2023-02-22T13:01:05.897Z,64.37
2023-02-22T13:06:27.044Z,63.98
2023-02-22T13:11:35.329Z,64.03
2023-02-22T13:16:52.732Z,65.03
2023-02-22T13:21:59.102Z,64.03
2023-02-22T13:27:05.862Z,63.80
2023-02-22T13:32:38.246Z,64.13
2023-02-22T13:38:12.448Z,64.08
2023-02-22T13:43:43.927Z,64.17
2023-02-22T13:49:18.717Z,64.27
2023-02-22T13:54:25.694Z,64.54
2023-02-22T13:59:33.827Z,64.64
2023-02-22T14:04:44.392Z,64.37
2023-02-22T14:09:49.544Z,64.56
2023-02-22T14:15:28.553Z,64.05
2023-02-22T14:20:36.890Z,64.65
2023-02-22T14:25:42.458Z,64.66
2023-02-22T14:30:45.948Z,63.33
2023-02-22T14:35:52.769Z,64.53
2023-02-22T14:40:58.084Z,64.72
2023-02-22T14:46:05.498Z,64.37
2023-02-22T14:51:21.982Z,63.76
2023-02-22T14:56:28.860Z,64.58
2023-02-22T15:01:48.919Z,63.61
2023-02-22T15:07:00.199Z,63.81
2023-02-22T15:12:14.758Z,63.96
2023-02-22T15:17:21.444Z,64.84
2023-02-22T15:22:29.082Z,64.47
2023-02-22T15:27:36.988Z,65.30
2023-02-22T15:32:56.947Z,64.52
2023-02-22T15:38:08.894Z,64.39
2023-02-22T15:43:19.952Z,64.44
2023-02-22T15:48:23.769Z,63.73
2023-02-22T15:53:31.330Z,64.77
2023-02-22T15:58:35.552Z,64.33
2023-02-22T16:03:45.110Z,63.85
2023-02-22T16:08:55.476Z,64.77
2023-02-22T16:14:01.977Z,64.07
2023-02-22T16:19:31.462Z,64.94
2023-02-22T16:24:37.798Z,64.46
2023-02-22T16:29:41.445Z,64.77
2023-02-22T16:34:44.819Z,65.13
2023-02-22T16:39:51.932Z,64.87
2023-02-22T16:44:55.308Z,65.26
2023-02-22T16:49:58.686Z,64.93
2023-02-22T16:55:03.481Z,65.12
2023-02-22T17:00:10.020Z,64.64
2023-02-22T17:05:15.569Z,64.07
2023-02-22T17:10:20.865Z,64.44
2023-02-22T17:15:26.324Z,65.27
2023-02-22T17:20:31.295Z,64.38
2023-02-22T17:25:39.586Z,64.44
2023-02-22T17:30:45.415Z,64.31
2023-02-22T17:35:49.193Z,65.17
2023-02-22T17:40:54.977Z,64.93
2023-02-22T17:45:58.708Z,64.61
2023-02-22T17:51:07.016Z,64.35
2023-02-22T17:56:13.862Z,65.33
2023-02-22T18:01:24.709Z,64.35
2023-02-22T18:06:30.283Z,65.03
2023-02-22T18:11:35.100Z,64.52
2023-02-22T18:16:39.574Z,64.58
2023-02-22T18:21:43.010Z,65.75
2023-02-22T18:26:47.874Z,64.67
2023-02-22T18:31:53.825Z,64.56
2023-02-22T18:36:57.234Z,64.85
2023-02-22T18:42:02.004Z,65.54
2023-02-22T18:47:05.383Z,65.02
2023-02-22T18:52:11.559Z,65.11
2023-02-22T18:57:17.053Z,65.42
2023-02-22T19:02:21.380Z,65.05
2023-02-22T19:07:26.415Z,65.66
2023-02-22T19:12:31.643Z,64.48
2023-02-22T19:17:36.697Z,64.67
2023-02-22T19:22:40.222Z,65.40
2023-02-22T19:27:45.649Z,64.40
2023-02-22T19:32:49.018Z,64.51
2023-02-22T19:37:53.975Z,64.89
2023-02-22T19:42:59.059Z,64.51
2023-02-22T19:48:02.445Z,64.90
2023-02-22T19:53:05.871Z,65.13
2023-02-22T19:58:12.486Z,65.35
2023-02-22T20:03:23.478Z,65.49
2023-02-22T20:08:27.182Z,65.15
2023-02-22T20:13:32.692Z,64.49
2023-02-22T20:18:36.785Z,64.84
2023-02-22T20:23:44.342Z,64.74
2023-02-22T20:28:49.676Z,64.39
2023-02-22T20:33:55.366Z,65.13
2023-02-22T20:39:00.560Z,65.32
2023-02-22T20:44:07.080Z,65.08
2023-02-22T20:49:12.804Z,64.58
2023-02-22T20:54:16.937Z,64.64
2023-02-22T20:59:21.925Z,64.66
2023-02-22T21:04:25.313Z,65.06
2023-02-22T21:09:28.708Z,64.52
2023-02-22T21:14:34.782Z,64.62
2023-02-22T21:19:38.320Z,64.83
2023-02-22T21:24:41.959Z,64.88
2023-02-22T21:29:46.752Z,64.84
2023-02-22T21:34:50.224Z,64.81
2023-02-22T21:39:53.782Z,64.15
2023-02-22T21:44:58.577Z,64.03
2023-02-22T21:50:02.110Z,64.37
2023-02-22T21:55:06.449Z,63.99
2023-02-22T22:00:17.559Z,64.38
2023-02-22T22:05:32.052Z,64.19
2023-02-22T22:10:35.767Z,64.25
2023-02-22T22:15:40.829Z,64.13
2023-02-22T22:20:45.175Z,64.38
2023-02-22T22:25:51.373Z,63.87
2023-02-22T22:30:56.321Z,64.11
2023-02-22T22:35:59.775Z,64.54
2023-02-22T22:41:05.786Z,63.75
2023-02-22T22:46:12.560Z,63.90
2023-02-22T22:51:20.304Z,63.29
2023-02-22T22:56:26.571Z,64.15
2023-02-22T23:01:34.334Z,63.48
2023-02-22T23:06:39.339Z,63.73
2023-02-22T23:11:45.224Z,63.64
2023-02-22T23:16:51.457Z,63.85
2023-02-22T23:21:56.080Z,62.82
2023-02-22T23:27:00.441Z,63.49
2023-02-22T23:32:06.061Z,63.71
2023-02-22T23:37:10.864Z,63.29
2023-02-22T23:42:16.892Z,64.04
2023-02-22T23:47:21.735Z,63.41
2023-02-22T23:52:25.118Z,63.66
2023-02-22T23:57:28.483Z,62.94
